Home   Weather   Germany   Schorndorf   Past weeks
Flag for Germany

Past Weather in Schorndorf, Baden-Württemberg, Germany — Yesterday and Last 2 Weeks

Currently: 66 °F. Clear. (Weather station: Stuttgart-Echterdingen, Germany). See more current weather

Past Weather in Schorndorf — Graph

°F

Schorndorf Temperature Yesterday

Maximum temperature yesterday: 84 °F (at 4:20 pm)
Minimum temperature yesterday: 57 °F (at 4:20 am)
Average temperature yesterday: 71 °F

High & Low Weather Summary for the Past Weeks

 TemperatureHumidityPressure
High95 °F (Aug 4, 2:50 pm)100% (Aug 2, 5:50 am)30.27 "Hg (Aug 2, 5:50 am)
Low54 °F (Aug 8, 5:20 am)23% (Aug 9, 5:20 pm)29.89 "Hg (Jul 28, 6:50 pm)
Average72 °F55%30.07 "Hg
* Reported Jul 25 10:20 pm — Aug 9 10:50 pm, Schorndorf. Weather by CustomWeather, © 2022

Note: Actual official high and low records may vary slightly from our data, if they occured in-between our weather recording intervals... More about our weather records

Schorndorf Weather History for the Previous 24 Hours

Scroll right to see more
 ConditionsComfort  
Time TempWeatherWind HumidityBarometerVisibility
10:50 pm
Tue, Aug 9
68 °FClear.2 mph46%30.24 "Hg10 mi
10:20 pm72 °FPassing clouds.3 mph41%30.24 "HgN/A
9:50 pm72 °FPassing clouds.3 mph41%30.24 "HgN/A
9:20 pm75 °FClear.7 mph34%30.24 "Hg10 mi
8:50 pm73 °FClear.8 mph36%30.21 "Hg10 mi
8:20 pm77 °FSunny.9 mph32%30.21 "Hg10 mi
7:50 pm79 °FSunny.9 mph30%30.21 "Hg10 mi
7:20 pm81 °FSunny.12 mph28%30.21 "Hg10 mi
6:50 pm82 °FPassing clouds.12 mph26%30.21 "HgN/A
6:20 pm82 °FPassing clouds.12 mph25%30.21 "HgN/A
5:50 pm84 °FPassing clouds.12 mph25%30.21 "HgN/A
5:20 pm84 °FPassing clouds.12 mph23%30.21 "HgN/A
4:50 pm84 °FPassing clouds.13 mph25%30.21 "HgN/A
4:20 pm84 °FPassing clouds.10 mph25%30.21 "HgN/A
3:20 pm82 °FPassing clouds.12 mph28%30.21 "HgN/A
2:20 pm82 °FPassing clouds.10 mph26%30.24 "HgN/A
1:50 pm81 °FPassing clouds.10 mph30%30.24 "HgN/A
1:20 pm81 °FPassing clouds.9 mph32%30.24 "HgN/A
12:50 pm81 °FPassing clouds.8 mph34%30.24 "HgN/A
12:20 pm79 °FPassing clouds.9 mph37%30.27 "HgN/A
11:50 am77 °FPassing clouds.10 mph39%30.27 "HgN/A
11:20 am77 °FPassing clouds.10 mph42%30.27 "HgN/A
10:50 am75 °FPassing clouds.8 mph44%30.27 "HgN/A
10:20 am73 °FPassing clouds.7 mph47%30.27 "HgN/A
9:50 am72 °FPassing clouds.6 mph50%30.27 "HgN/A
9:20 am68 °FPassing clouds.5 mph53%30.27 "HgN/A
8:50 am66 °FSunny.2 mph56%30.24 "Hg10 mi
8:20 am64 °FSunny.2 mph60%30.24 "Hg10 mi
7:50 am63 °FSunny.2 mph64%30.24 "Hg10 mi
7:20 am63 °FPassing clouds.3 mph64%30.24 "HgN/A
6:50 am59 °FSunny.2 mph68%30.24 "Hg10 mi
6:20 am57 °FSunny.1 mph72%30.21 "Hg10 mi
5:50 am57 °FClear.3 mph67%30.21 "Hg10 mi
5:20 am57 °FClear.3 mph72%30.21 "Hg10 mi
4:50 am59 °FClear.2 mph68%30.21 "Hg10 mi
4:20 am57 °FClear.5 mph72%30.21 "Hg10 mi
3:50 am59 °FClear.1 mph63%30.21 "Hg10 mi
3:20 am59 °FClear.1 mph68%30.21 "Hg10 mi
2:50 am59 °FPassing clouds.3 mph68%30.21 "HgN/A
1:20 am63 °FClear.2 mph59%30.21 "Hg10 mi
12:50 am63 °FPassing clouds.3 mph56%30.21 "HgN/A
12:20 am66 °FClear.2 mph49%30.21 "Hg10 mi
Weather by CustomWeather, © 2022

See weather overview